createdAt,value
2022-11-22T00:01:40.256Z,98831.97
2022-11-22T00:04:14.384Z,98841.44
2022-11-22T00:06:47.274Z,98851.71
2022-11-22T00:09:19.652Z,98854.14
2022-11-22T00:11:51.927Z,98852.77
2022-11-22T00:14:24.837Z,98855.55
2022-11-22T00:16:57.789Z,98859.56
2022-11-22T00:19:30.479Z,98859.42
2022-11-22T00:22:03.698Z,98857.55
2022-11-22T00:24:36.202Z,98858.36
2022-11-22T00:27:08.861Z,98867.70
2022-11-22T00:29:41.221Z,98863.84
2022-11-22T00:32:14.127Z,98870.09
2022-11-22T00:34:46.518Z,98873.20
2022-11-22T00:37:19.124Z,98869.91
2022-11-22T00:39:51.418Z,98873.41
2022-11-22T00:42:23.916Z,98867.35
2022-11-22T00:44:56.866Z,98879.37
2022-11-22T00:47:29.373Z,98885.18
2022-11-22T00:50:01.779Z,98883.48
2022-11-22T00:52:34.708Z,98886.05
2022-11-22T00:55:08.347Z,98885.28
2022-11-22T00:57:41.330Z,98882.54
2022-11-22T01:00:15.957Z,98885.31
2022-11-22T01:02:49.277Z,98885.36
2022-11-22T01:05:21.840Z,98888.78
2022-11-22T01:07:56.006Z,98892.79
2022-11-22T01:10:29.331Z,98889.98
2022-11-22T01:13:02.083Z,98883.80
2022-11-22T01:15:34.725Z,98888.78
2022-11-22T01:18:07.659Z,98885.36
2022-11-22T01:20:41.863Z,98879.15
2022-11-22T01:23:13.649Z,98877.20
2022-11-22T01:25:46.072Z,98882.97
2022-11-22T01:28:19.024Z,98893.50
2022-11-22T01:30:54.575Z,98899.98
2022-11-22T01:33:27.749Z,98893.92
2022-11-22T01:36:01.674Z,98894.64
2022-11-22T01:38:35.015Z,98892.73
2022-11-22T01:41:07.988Z,98892.16
2022-11-22T01:43:40.726Z,98904.28
2022-11-22T01:46:23.457Z,98916.11
2022-11-22T01:49:05.795Z,98931.29
2022-11-22T01:51:41.747Z,98931.14
2022-11-22T01:54:20.864Z,98927.16
2022-11-22T01:56:57.340Z,98928.55
2022-11-22T01:59:31.945Z,98930.29
2022-11-22T02:02:04.778Z,98926.73
2022-11-22T02:04:37.342Z,98937.17
2022-11-22T02:07:23.713Z,98943.27
2022-11-22T02:09:56.281Z,98936.80
2022-11-22T02:12:30.204Z,98927.97
2022-11-22T02:15:03.243Z,98935.63
2022-11-22T02:17:35.659Z,98939.42
2022-11-22T02:20:09.702Z,98944.60
2022-11-22T02:22:48.525Z,98937.22
2022-11-22T02:25:44.477Z,98947.00
2022-11-22T02:28:16.865Z,98954.44
2022-11-22T02:30:49.385Z,98950.91
2022-11-22T02:33:21.884Z,98955.61
2022-11-22T02:35:54.513Z,98961.88
2022-11-22T02:38:33.826Z,98968.34
2022-11-22T02:41:11.436Z,98969.48
2022-11-22T02:43:47.476Z,98971.31
2022-11-22T02:46:21.788Z,98968.95
2022-11-22T02:48:54.269Z,98971.41
2022-11-22T02:51:26.942Z,98978.81
2022-11-22T02:53:59.308Z,98975.02
2022-11-22T02:56:31.705Z,98968.75
2022-11-22T02:59:04.117Z,98972.55
2022-11-22T03:01:37.481Z,98971.37
2022-11-22T03:04:10.498Z,98977.84
2022-11-22T03:06:44.510Z,98987.44
2022-11-22T03:09:16.859Z,98983.91
2022-11-22T03:11:49.938Z,98988.31
2022-11-22T03:14:22.404Z,99000.88
2022-11-22T03:16:54.839Z,98995.95
2022-11-22T03:19:27.509Z,98995.42
2022-11-22T03:22:00.247Z,99009.59
2022-11-22T03:24:34.199Z,99020.93
2022-11-22T03:27:06.595Z,99020.56
2022-11-22T03:29:40.115Z,99023.59
2022-11-22T03:32:12.784Z,99014.06
2022-11-22T03:34:45.788Z,99013.45
2022-11-22T03:37:18.902Z,99034.63
2022-11-22T03:39:51.383Z,99028.77
2022-11-22T03:42:23.942Z,99015.77
2022-11-22T03:44:56.639Z,99021.00
2022-11-22T03:47:29.081Z,99021.27
2022-11-22T03:50:01.731Z,99022.12
2022-11-22T03:52:35.529Z,99025.06
2022-11-22T03:55:08.872Z,99026.86
2022-11-22T03:57:43.125Z,99032.00
2022-11-22T04:00:17.319Z,99037.14
2022-11-22T04:02:49.753Z,99044.67
2022-11-22T04:05:22.246Z,99058.90
2022-11-22T04:07:59.236Z,99052.80
2022-11-22T04:10:31.659Z,99062.33
2022-11-22T04:13:04.316Z,99067.31
2022-11-22T04:15:38.005Z,99073.71
2022-11-22T04:18:14.942Z,99069.71
2022-11-22T04:21:05.864Z,99062.08
2022-11-22T04:23:38.580Z,99062.55
2022-11-22T04:26:10.892Z,99065.14
2022-11-22T04:29:08.876Z,99058.10
2022-11-22T04:31:36.772Z,99060.48
2022-11-22T04:34:09.555Z,99055.98
2022-11-22T04:36:43.488Z,99053.91
2022-11-22T04:39:15.997Z,99060.67
2022-11-22T04:41:51.660Z,99055.63
2022-11-22T04:44:42.685Z,99069.73
2022-11-22T04:47:37.228Z,99086.00
2022-11-22T04:50:28.972Z,99087.43
2022-11-22T04:53:01.899Z,99098.09
2022-11-22T04:55:34.459Z,99092.76
2022-11-22T04:58:06.863Z,99097.80
2022-11-22T05:00:40.005Z,99102.96
2022-11-22T05:03:12.781Z,99105.30
2022-11-22T05:05:45.650Z,99104.74
2022-11-22T05:08:18.061Z,99103.78
2022-11-22T05:11:00.116Z,99106.34
2022-11-22T05:13:36.414Z,99112.73
2022-11-22T05:16:11.568Z,99119.13
2022-11-22T05:18:44.345Z,99124.27
2022-11-22T05:21:17.367Z,99113.30
2022-11-22T05:23:55.969Z,99111.51
2022-11-22T05:26:34.456Z,99126.27
2022-11-22T05:29:11.414Z,99134.08
2022-11-22T05:31:49.931Z,99127.13
2022-11-22T05:34:19.449Z,99125.13
2022-11-22T05:36:52.022Z,99128.29
2022-11-22T05:39:24.414Z,99123.69
2022-11-22T05:41:57.053Z,99130.75
2022-11-22T05:44:29.490Z,99141.09
2022-11-22T05:47:02.435Z,99135.77
2022-11-22T05:49:35.033Z,99135.10
2022-11-22T05:52:08.993Z,99135.69
2022-11-22T05:54:42.066Z,99141.75
2022-11-22T05:57:14.597Z,99144.71
2022-11-22T05:59:47.940Z,99146.14
2022-11-22T06:02:20.345Z,99150.56
2022-11-22T06:04:53.302Z,99149.41
2022-11-22T06:07:25.819Z,99157.68
2022-11-22T06:09:58.968Z,99156.05
2022-11-22T06:12:31.372Z,99157.76
2022-11-22T06:15:03.890Z,99168.92
2022-11-22T06:17:36.281Z,99164.70
2022-11-22T06:20:10.437Z,99171.38
2022-11-22T06:22:43.598Z,99166.91
2022-11-22T06:25:16.228Z,99175.09
2022-11-22T06:27:49.462Z,99180.34
2022-11-22T06:30:22.061Z,99183.77
2022-11-22T06:32:55.094Z,99184.05
2022-11-22T06:35:27.541Z,99181.77
2022-11-22T06:38:01.027Z,99187.20
2022-11-22T06:40:33.783Z,99203.20
2022-11-22T06:43:06.276Z,99203.48
2022-11-22T06:45:38.935Z,99200.62
2022-11-22T06:48:11.602Z,99207.19
2022-11-22T06:50:45.111Z,99207.84
2022-11-22T06:53:45.370Z,99203.64
2022-11-22T06:55:55.569Z,99208.41
2022-11-22T06:58:27.227Z,99217.75
2022-11-22T07:01:09.592Z,99215.63
2022-11-22T07:03:42.834Z,99222.02
2022-11-22T07:06:16.448Z,99222.42
2022-11-22T07:08:49.298Z,99231.16
2022-11-22T07:11:26.934Z,99236.97
2022-11-22T07:14:06.944Z,99233.73
2022-11-22T07:16:36.129Z,99236.24
2022-11-22T07:19:09.346Z,99234.05
2022-11-22T07:21:41.829Z,99247.67
2022-11-22T07:24:15.018Z,99240.25
2022-11-22T07:26:48.029Z,99246.42
2022-11-22T07:29:20.443Z,99246.73
2022-11-22T07:31:53.381Z,99247.17
2022-11-22T07:34:26.512Z,99245.45
2022-11-22T07:37:04.775Z,99250.13
2022-11-22T07:39:34.479Z,99257.17
2022-11-22T07:42:07.050Z,99258.31
2022-11-22T07:44:42.048Z,99261.63
2022-11-22T07:47:19.830Z,99259.66
2022-11-22T07:49:48.239Z,99258.22
2022-11-22T07:52:20.463Z,99268.80
2022-11-22T07:54:53.006Z,99270.05
2022-11-22T07:57:25.407Z,99269.38
2022-11-22T07:59:57.780Z,99257.37
2022-11-22T08:02:30.443Z,99261.95
2022-11-22T08:05:03.149Z,99271.89
2022-11-22T08:07:36.683Z,99267.88
2022-11-22T08:10:10.899Z,99267.76
2022-11-22T08:12:43.639Z,99276.41
2022-11-22T08:15:17.225Z,99273.95
2022-11-22T08:17:50.549Z,99273.17
2022-11-22T08:20:23.648Z,99264.60
2022-11-22T08:22:57.720Z,99275.66
2022-11-22T08:25:30.422Z,99271.86
2022-11-22T08:28:02.907Z,99283.70
2022-11-22T08:30:36.026Z,99279.08
2022-11-22T08:33:09.577Z,99284.69
2022-11-22T08:35:42.189Z,99281.12
2022-11-22T08:38:15.033Z,99267.77
2022-11-22T08:40:47.967Z,99265.32
2022-11-22T08:43:20.602Z,99275.66
2022-11-22T08:45:58.306Z,99272.41
2022-11-22T08:48:31.913Z,99280.22
2022-11-22T08:51:06.933Z,99274.02
2022-11-22T08:53:42.335Z,99277.84
2022-11-22T08:56:36.004Z,99285.05
2022-11-22T08:59:09.544Z,99291.24
2022-11-22T09:01:42.018Z,99281.43
2022-11-22T09:04:14.502Z,99288.20
2022-11-22T09:09:36.900Z,99284.22
2022-11-22T09:11:55.630Z,99286.37
2022-11-22T09:14:29.448Z,99289.12
2022-11-22T09:17:02.111Z,99294.06
2022-11-22T09:19:34.790Z,99296.84
2022-11-22T09:22:07.222Z,99295.75
2022-11-22T09:24:41.685Z,99290.70
2022-11-22T09:27:14.165Z,99299.38
2022-11-22T09:29:46.984Z,99289.63
2022-11-22T09:32:19.422Z,99287.36
2022-11-22T09:34:51.944Z,99288.59
2022-11-22T09:37:25.030Z,99299.75
2022-11-22T09:39:58.092Z,99304.16
2022-11-22T09:42:54.813Z,99310.47
2022-11-22T09:45:43.614Z,99301.19
2022-11-22T09:48:39.080Z,99308.80
2022-11-22T09:51:18.470Z,99309.38
2022-11-22T09:53:58.433Z,99313.98
2022-11-22T09:56:31.050Z,99312.17
2022-11-22T09:59:22.767Z,99316.67
2022-11-22T10:02:11.634Z,99322.78
2022-11-22T10:04:42.107Z,99324.56
2022-11-22T10:07:21.515Z,99327.91
2022-11-22T10:10:03.187Z,99316.88
2022-11-22T10:12:56.486Z,99327.30
2022-11-22T10:15:52.229Z,99324.94
2022-11-22T10:18:47.001Z,99329.81
2022-11-22T10:21:20.049Z,99331.71
2022-11-22T10:23:52.855Z,99333.81
2022-11-22T10:26:35.600Z,99341.22
2022-11-22T10:29:28.537Z,99342.36
2022-11-22T10:32:14.980Z,99336.63
2022-11-22T10:35:29.521Z,99344.81
2022-11-22T10:38:09.470Z,99347.77
2022-11-22T10:40:56.472Z,99348.61
2022-11-22T10:44:14.937Z,99337.36
2022-11-22T10:46:58.558Z,99340.03
2022-11-22T10:49:58.391Z,99351.28
2022-11-22T10:53:09.144Z,99351.88
2022-11-22T10:56:13.562Z,99348.52
2022-11-22T10:59:08.676Z,99356.83
2022-11-22T11:02:14.675Z,99357.00
2022-11-22T11:04:48.650Z,99359.66
2022-11-22T11:07:23.280Z,99351.91
2022-11-22T11:10:14.719Z,99348.39
2022-11-22T11:12:48.184Z,99348.47
2022-11-22T11:15:43.999Z,99343.30
2022-11-22T11:18:35.395Z,99348.51
2022-11-22T11:21:08.388Z,99333.41
2022-11-22T11:23:41.065Z,99333.77
2022-11-22T11:26:28.366Z,99342.30
2022-11-22T11:29:26.583Z,99345.80
2022-11-22T11:32:12.093Z,99344.30
2022-11-22T11:35:01.640Z,99354.63
2022-11-22T11:37:39.156Z,99355.95
2022-11-22T11:40:33.086Z,99348.04
2022-11-22T11:43:23.085Z,99351.08
2022-11-22T11:45:56.093Z,99347.44
2022-11-22T11:48:38.557Z,99351.85
2022-11-22T11:51:17.973Z,99355.19
2022-11-22T11:54:04.442Z,99358.27
2022-11-22T11:57:00.780Z,99359.38
2022-11-22T11:59:49.495Z,99354.89
2022-11-22T12:02:37.514Z,99357.77
2022-11-22T12:05:17.919Z,99369.73
2022-11-22T12:07:50.713Z,99367.47
2022-11-22T12:11:01.144Z,99365.59
2022-11-22T12:14:05.062Z,99375.13
2022-11-22T12:16:25.096Z,99371.43
2022-11-22T12:19:33.987Z,99373.42
2022-11-22T12:22:49.972Z,99372.77
2022-11-22T12:25:39.737Z,99367.59
2022-11-22T12:28:29.222Z,99370.81
2022-11-22T12:31:21.603Z,99382.52
2022-11-22T12:34:01.696Z,99395.78
2022-11-22T12:37:00.094Z,99402.58
2022-11-22T12:39:32.899Z,99404.11
2022-11-22T12:42:23.264Z,99408.61
2022-11-22T12:45:05.933Z,99405.73
2022-11-22T12:47:41.325Z,99398.19
2022-11-22T12:50:33.705Z,99407.73
2022-11-22T12:53:24.544Z,99407.00
2022-11-22T12:56:07.362Z,99402.98
2022-11-22T12:59:03.077Z,99405.66
2022-11-22T13:01:45.398Z,99407.76
2022-11-22T13:04:46.061Z,99394.13
2022-11-22T13:07:38.690Z,99397.27
2022-11-22T13:10:32.925Z,99406.62
2022-11-22T13:13:07.197Z,99409.97
2022-11-22T13:15:40.822Z,99411.78
2022-11-22T13:18:16.392Z,99411.20
2022-11-22T13:21:14.622Z,99413.89
2022-11-22T13:24:09.992Z,99423.06
2022-11-22T13:26:53.222Z,99427.06
2022-11-22T13:29:29.964Z,99424.77
2022-11-22T13:32:20.225Z,99413.23
2022-11-22T13:35:07.097Z,99409.33
2022-11-22T13:37:43.154Z,99423.55
2022-11-22T13:40:44.228Z,99424.20
2022-11-22T13:43:23.122Z,99430.42
2022-11-22T13:45:58.508Z,99441.49
2022-11-22T13:48:49.690Z,99443.30
2022-11-22T13:51:44.915Z,99439.19
2022-11-22T13:54:42.574Z,99447.77
2022-11-22T13:57:43.076Z,99433.67
2022-11-22T14:00:21.756Z,99436.03
2022-11-22T14:02:56.737Z,99429.67
2022-11-22T14:05:41.627Z,99439.56
2022-11-22T14:08:33.034Z,99421.92
2022-11-22T14:11:13.129Z,99421.74
2022-11-22T14:14:17.876Z,99424.41
2022-11-22T14:17:14.526Z,99436.43
2022-11-22T14:20:14.122Z,99435.88
2022-11-22T14:23:11.062Z,99442.33
2022-11-22T14:26:09.576Z,99441.78
2022-11-22T14:29:11.483Z,99443.13
2022-11-22T14:31:44.082Z,99445.89
2022-11-22T14:34:25.979Z,99452.66
2022-11-22T14:37:23.249Z,99460.17
2022-11-22T14:40:39.279Z,99462.56
2022-11-22T14:43:28.105Z,99469.61
2022-11-22T14:46:51.011Z,99483.55
2022-11-22T14:49:13.201Z,99476.69
2022-11-22T14:51:45.635Z,99476.09
2022-11-22T14:54:30.161Z,99475.35
2022-11-22T14:57:05.119Z,99487.16
2022-11-22T15:00:09.395Z,99483.05
2022-11-22T15:03:24.398Z,99491.94
2022-11-22T15:09:12.790Z,99494.79
2022-11-22T15:09:18.823Z,99495.76
2022-11-22T15:11:52.972Z,99504.33
2022-11-22T15:57:54.229Z,99520.20
2022-11-22T16:00:30.364Z,99520.20
2022-11-22T16:03:04.440Z,99518.38
2022-11-22T16:06:10.195Z,99524.49
2022-11-22T16:08:13.886Z,99521.36
2022-11-22T16:10:50.094Z,99521.45
2022-11-22T16:13:26.971Z,99527.91
2022-11-22T16:16:18.751Z,99520.95
2022-11-22T16:18:53.274Z,99522.66
2022-11-22T16:21:30.463Z,99542.60
2022-11-22T16:24:20.055Z,99530.67
2022-11-22T16:26:58.411Z,99530.85
2022-11-22T16:29:35.737Z,99535.26
2022-11-22T16:32:14.688Z,99526.28
2022-11-22T16:34:51.661Z,99528.49
2022-11-22T16:37:36.411Z,99536.59
2022-11-22T16:40:06.187Z,99538.86
2022-11-22T16:42:40.787Z,99539.63
2022-11-22T16:45:20.158Z,99539.23
2022-11-22T16:48:16.510Z,99541.72
2022-11-22T16:50:30.456Z,99538.48
2022-11-22T16:53:03.152Z,99545.07
2022-11-22T16:55:36.554Z,99545.45
2022-11-22T16:58:21.016Z,99541.34
2022-11-22T17:00:55.180Z,99552.53
2022-11-22T17:03:30.407Z,99551.28
2022-11-22T17:06:02.937Z,99553.77
2022-11-22T17:08:35.468Z,99543.28
2022-11-22T17:11:10.931Z,99550.33
2022-11-22T17:13:43.699Z,99554.62
2022-11-22T17:16:18.117Z,99551.95
2022-11-22T17:18:50.787Z,99538.81
2022-11-22T17:21:34.445Z,99533.94
2022-11-22T17:24:07.218Z,99535.86
2022-11-22T17:26:40.085Z,99532.05
2022-11-22T17:29:29.020Z,99544.44
2022-11-22T17:31:48.860Z,99537.48
2022-11-22T17:34:21.373Z,99525.92
2022-11-22T17:36:53.979Z,99528.03
2022-11-22T17:39:26.790Z,99528.87
2022-11-22T17:41:59.370Z,99530.20
2022-11-22T17:44:31.799Z,99530.70
2022-11-22T17:47:04.501Z,99513.34
2022-11-22T17:49:37.277Z,99515.52
2022-11-22T17:52:09.861Z,99519.05
2022-11-22T17:54:42.239Z,99509.89
2022-11-22T17:57:15.166Z,99509.80
2022-11-22T17:59:47.802Z,99508.00
2022-11-22T18:02:20.734Z,99503.40
2022-11-22T18:04:55.881Z,99507.41
2022-11-22T18:07:29.764Z,99499.89
2022-11-22T18:10:04.417Z,99501.69
2022-11-22T18:12:42.260Z,99508.55
2022-11-22T18:15:12.973Z,99512.56
2022-11-22T18:17:45.954Z,99515.42
2022-11-22T18:20:18.930Z,99516.02
2022-11-22T18:22:51.829Z,99511.13
2022-11-22T18:25:24.265Z,99512.19
2022-11-22T18:27:57.637Z,99517.22
2022-11-22T18:30:30.197Z,99513.22
2022-11-22T18:33:03.934Z,99519.05
2022-11-22T18:35:37.036Z,99524.03
2022-11-22T18:38:10.823Z,99528.13
2022-11-22T18:40:48.139Z,99520.48
2022-11-22T18:43:20.597Z,99522.88
2022-11-22T18:45:53.342Z,99523.72
2022-11-22T18:48:26.048Z,99523.16
2022-11-22T18:51:04.593Z,99520.58
2022-11-22T18:53:40.173Z,99523.90
2022-11-22T18:56:17.162Z,99517.12
2022-11-22T18:58:51.449Z,99513.98
2022-11-22T19:01:26.266Z,99527.25
2022-11-22T19:03:59.619Z,99522.28
2022-11-22T19:06:32.161Z,99526.84
2022-11-22T19:09:05.118Z,99519.80
2022-11-22T19:11:37.520Z,99524.27
2022-11-22T19:14:10.904Z,99525.14
2022-11-22T19:16:46.666Z,99513.71
2022-11-22T19:19:19.681Z,99521.59
2022-11-22T19:21:52.201Z,99516.38
2022-11-22T19:24:24.557Z,99515.60
2022-11-22T19:26:58.020Z,99515.98
2022-11-22T19:29:30.921Z,99524.17
2022-11-22T19:32:03.946Z,99519.80
2022-11-22T19:34:37.237Z,99517.72
2022-11-22T19:37:11.845Z,99518.64
2022-11-22T19:39:44.362Z,99515.78
2022-11-22T19:42:17.854Z,99516.84
2022-11-22T19:44:50.717Z,99523.80
2022-11-22T19:47:23.484Z,99524.39
2022-11-22T19:49:55.783Z,99538.48
2022-11-22T19:52:28.264Z,99549.72
2022-11-22T19:55:00.547Z,99554.70
2022-11-22T19:57:33.040Z,99559.85
2022-11-22T20:00:07.291Z,99571.50
2022-11-22T20:02:40.443Z,99571.59
2022-11-22T20:05:12.939Z,99569.38
2022-11-22T20:07:45.596Z,99568.64
2022-11-22T20:10:19.593Z,99570.72
2022-11-22T20:12:52.603Z,99583.11
2022-11-22T20:15:25.521Z,99584.34
2022-11-22T20:17:58.081Z,99591.09
2022-11-22T20:20:31.186Z,99585.53
2022-11-22T20:23:03.646Z,99597.61
2022-11-22T20:25:38.029Z,99601.29
2022-11-22T20:28:11.477Z,99610.28
2022-11-22T20:30:43.910Z,99614.66
2022-11-22T20:33:16.558Z,99616.52
2022-11-22T20:35:49.147Z,99607.44
2022-11-22T20:38:23.122Z,99615.25
2022-11-22T20:41:00.193Z,99614.46
2022-11-22T20:43:33.101Z,99622.13
2022-11-22T20:46:11.258Z,99623.45
2022-11-22T20:48:46.664Z,99626.91
2022-11-22T20:51:25.063Z,99622.81
2022-11-22T20:53:57.638Z,99624.27
2022-11-22T20:56:30.102Z,99632.83
2022-11-22T20:59:02.503Z,99627.89
2022-11-22T21:01:35.656Z,99629.02
2022-11-22T21:04:08.271Z,99637.72
2022-11-22T21:06:42.064Z,99640.77
2022-11-22T21:09:16.190Z,99642.98
2022-11-22T21:11:49.127Z,99641.27
2022-11-22T21:14:21.724Z,99652.23
2022-11-22T21:16:54.805Z,99658.03
2022-11-22T21:19:27.222Z,99666.63
2022-11-22T21:22:01.151Z,99660.51
2022-11-22T21:24:33.996Z,99661.20
2022-11-22T21:27:06.343Z,99660.16
2022-11-22T21:29:40.143Z,99659.02
2022-11-22T21:32:13.307Z,99665.32
2022-11-22T21:34:47.318Z,99666.05
2022-11-22T21:37:20.717Z,99672.72
2022-11-22T21:39:53.365Z,99678.56
2022-11-22T21:42:25.707Z,99684.36
2022-11-22T21:44:58.299Z,99679.58
2022-11-22T21:47:32.259Z,99683.75
2022-11-22T21:50:11.417Z,99687.76
2022-11-22T21:52:42.433Z,99690.05
2022-11-22T21:55:15.608Z,99686.80
2022-11-22T21:57:48.331Z,99684.68
2022-11-22T22:00:21.027Z,99686.65
2022-11-22T22:02:53.686Z,99685.41
2022-11-22T22:05:26.283Z,99687.81
2022-11-22T22:07:58.738Z,99687.55
2022-11-22T22:10:31.500Z,99686.63
2022-11-22T22:13:04.565Z,99689.01
2022-11-22T22:15:39.966Z,99687.41
2022-11-22T22:18:12.761Z,99690.41
2022-11-22T22:20:47.282Z,99681.70
2022-11-22T22:23:19.560Z,99681.98
2022-11-22T22:25:59.422Z,99688.98
2022-11-22T22:28:33.010Z,99689.45
2022-11-22T22:31:10.487Z,99687.82
2022-11-22T22:33:45.868Z,99693.16
2022-11-22T22:36:19.463Z,99692.75
2022-11-22T22:38:51.811Z,99692.92
2022-11-22T22:41:24.805Z,99697.34
2022-11-22T22:43:57.120Z,99704.39
2022-11-22T22:46:30.162Z,99690.08
2022-11-22T22:49:02.765Z,99695.25
2022-11-22T22:51:35.891Z,99693.54
2022-11-22T22:54:10.604Z,99700.67
2022-11-22T22:56:44.894Z,99697.52
2022-11-22T22:59:17.576Z,99704.94
2022-11-22T23:01:51.008Z,99704.94
2022-11-22T23:04:24.017Z,99701.11
2022-11-22T23:06:56.751Z,99705.90
2022-11-22T23:09:29.642Z,99711.33
2022-11-22T23:12:11.790Z,99707.58
2022-11-22T23:14:44.050Z,99706.58
2022-11-22T23:17:16.832Z,99703.83
2022-11-22T23:19:49.594Z,99702.41
2022-11-22T23:22:25.949Z,99710.83
2022-11-22T23:24:57.270Z,99708.16
2022-11-22T23:27:30.179Z,99707.83
2022-11-22T23:30:03.381Z,99708.25
2022-11-22T23:32:35.947Z,99711.20
2022-11-22T23:35:10.190Z,99719.05
2022-11-22T23:37:42.828Z,99721.34
2022-11-22T23:40:16.726Z,99717.33
2022-11-22T23:42:49.353Z,99720.92
2022-11-22T23:45:21.640Z,99715.21
2022-11-22T23:47:54.288Z,99721.51
2022-11-22T23:50:26.643Z,99721.88
2022-11-22T23:53:00.796Z,99714.66
2022-11-22T23:55:34.902Z,99713.70
2022-11-22T23:58:07.349Z,99715.67
